Time;durP1;ratioP1;P1;durP2;ratioP2;P2;SDS_P1;SDS_P2;PMS_P1;PMS_P2;Temp;Humidity;BMP_temperature;BMP_pressure;BME280_temperature;BME280_humidity;BME280_pressure;Samples;Min_cycle;Max_cycle;Signal;HPM_P1;HPM_P2
2022/04/05 00:01:13;;;;;;;7.65;4.97;;;;;;;6.64;61.15;99931.75;5049804;28;20400;-72
2022/04/05 00:03:38;;;;;;;8.10;5.85;;;;;;;6.51;61.62;99926.81;5045176;28;20521;-70
2022/04/05 00:06:04;;;;;;;7.03;5.50;;;;;;;6.36;62.72;99931.63;5049179;28;20124;-70
2022/04/05 00:08:29;;;;;;;7.05;6.05;;;;;;;6.30;63.07;99919.91;5030418;28;20407;-70
2022/04/05 00:10:54;;;;;;;8.30;5.57;;;;;;;6.27;63.55;99922.81;5024416;28;20161;-70
2022/04/05 00:13:20;;;;;;;7.13;5.53;;;;;;;6.36;63.31;99906.22;5047972;28;20433;-70
2022/04/05 00:15:45;;;;;;;9.38;5.95;;;;;;;6.45;63.29;99908.97;5041377;28;20044;-72
2022/04/05 00:18:10;;;;;;;6.13;4.93;;;;;;;6.55;63.05;99915.03;5054713;28;20385;-72
2022/04/05 00:20:36;;;;;;;6.72;4.82;;;;;;;6.55;62.99;99913.25;5049693;28;20040;-72
2022/04/05 00:23:02;;;;;;;7.00;5.22;;;;;;;6.49;63.80;99911.19;5048018;28;20091;-72
2022/04/05 00:25:27;;;;;;;11.48;5.55;;;;;;;6.28;64.42;99908.69;5046385;28;20139;-72
2022/04/05 00:27:53;;;;;;;8.05;5.57;;;;;;;6.06;66.51;99907.19;5051978;28;20086;-72
2022/04/05 00:30:19;;;;;;;7.18;5.22;;;;;;;5.93;67.02;99903.97;5059990;28;20124;-72
2022/04/05 00:32:44;;;;;;;7.45;5.07;;;;;;;5.86;67.84;99898.44;5051422;28;20037;-71
2022/04/05 00:35:10;;;;;;;7.78;5.68;;;;;;;5.85;68.04;99911.72;5051836;28;20087;-71
2022/04/05 00:37:36;;;;;;;8.23;5.28;;;;;;;5.79;68.75;99910.44;5052230;28;20043;-71
2022/04/05 00:40:05;;;;;;;11.13;5.60;;;;;;;5.75;69.18;99896.78;5050848;28;20057;-72
2022/04/05 00:42:31;;;;;;;6.18;5.15;;;;;;;5.69;69.28;99896.50;5051342;28;20592;-71
2022/04/05 00:44:56;;;;;;;7.63;5.50;;;;;;;5.67;69.77;99904.50;5051866;28;20056;-71
2022/04/05 00:47:23;;;;;;;8.00;5.78;;;;;;;5.61;70.78;99899.81;5051839;28;20028;-71
2022/04/05 00:49:50;;;;;;;7.57;6.22;;;;;;;5.62;70.57;99896.19;5050628;28;20041;-71
2022/04/05 00:52:17;;;;;;;8.40;5.82;;;;;;;5.61;70.72;99885.88;5053694;28;20091;-71
2022/04/05 00:54:46;;;;;;;8.10;5.78;;;;;;;5.57;71.24;99892.34;5056817;28;20090;-71
2022/04/05 00:57:14;;;;;;;9.70;5.32;;;;;;;5.50;71.93;99894.66;5061540;28;20036;-71
2022/04/05 00:59:41;;;;;;;9.00;5.35;;;;;;;5.46;72.38;99896.75;5065397;28;20043;-71
2022/04/05 01:02:10;;;;;;;9.15;6.13;;;;;;;5.45;72.50;99886.38;5048693;28;20038;-71
2022/04/05 01:04:36;;;;;;;6.82;5.45;;;;;;;5.42;73.32;99876.97;5051771;28;20061;-69
2022/04/05 01:07:04;;;;;;;9.35;5.72;;;;;;;5.38;73.98;99878.22;5041617;28;20060;-69
2022/04/05 01:09:30;;;;;;;6.80;5.60;;;;;;;5.40;74.08;99881.53;5049515;28;20045;-69
2022/04/05 01:11:55;;;;;;;8.73;5.88;;;;;;;5.39;74.33;99876.44;5050169;28;20040;-69
2022/04/05 01:14:20;;;;;;;7.32;5.50;;;;;;;5.39;74.11;99886.94;5059733;28;20029;-69
2022/04/05 01:16:47;;;;;;;7.70;5.65;;;;;;;5.40;74.39;99883.34;5051089;28;20044;-69
2022/04/05 01:19:12;;;;;;;7.10;5.00;;;;;;;5.36;75.02;99879.31;5065591;28;21339;-69
2022/04/05 01:21:38;;;;;;;8.13;6.00;;;;;;;5.39;74.72;99886.94;5044903;28;20128;-70
2022/04/05 01:24:13;;;;;;;6.32;5.32;;;;;;;5.36;74.91;99885.38;5046273;28;20119;-69
2022/04/05 01:26:39;;;;;;;7.45;5.45;;;;;;;5.33;74.85;99885.66;5052019;28;20064;-69
2022/04/05 01:29:05;;;;;;;7.15;5.68;;;;;;;5.33;75.38;99886.47;5043148;28;20037;-69
2022/04/05 01:31:30;;;;;;;9.27;5.70;;;;;;;5.37;75.02;99883.59;5050291;28;20135;-69
2022/04/05 01:33:57;;;;;;;8.23;5.00;;;;;;;5.37;75.14;99875.75;5050982;28;20184;-69
2022/04/05 01:36:23;;;;;;;7.03;5.32;;;;;;;5.37;75.23;99876.56;5051344;28;20412;-69
2022/04/05 01:38:48;;;;;;;6.75;5.15;;;;;;;5.38;75.30;99878.22;5050682;28;20052;-69
2022/04/05 01:41:13;;;;;;;7.22;5.15;;;;;;;5.37;75.42;99873.13;5052085;28;20140;-69
2022/04/05 01:43:40;;;;;;;6.72;4.53;;;;;;;5.39;74.93;99873.81;5055260;28;20037;-69
2022/04/05 01:46:06;;;;;;;7.57;5.65;;;;;;;5.37;75.41;99876.56;5050997;28;20068;-69
2022/04/05 01:48:31;;;;;;;7.60;5.65;;;;;;;5.38;75.54;99872.16;5051787;28;20072;-69
2022/04/05 01:50:57;;;;;;;7.05;5.32;;;;;;;5.39;75.78;99881.69;5047747;28;20044;-69
2022/04/05 01:53:22;;;;;;;6.85;4.88;;;;;;;5.34;76.50;99871.59;5045119;28;20056;-69
2022/04/05 01:55:47;;;;;;;7.25;5.07;;;;;;;5.32;76.73;99874.34;5030534;28;20029;-69
2022/04/05 01:58:13;;;;;;;6.55;4.75;;;;;;;5.32;77.08;99868.28;5049270;28;20029;-69
2022/04/05 02:00:38;;;;;;;8.55;5.35;;;;;;;5.31;76.81;99869.22;5049931;28;20128;-69
2022/04/05 02:03:03;;;;;;;5.93;4.82;;;;;;;5.31;76.92;99869.22;5051746;28;20198;-69
2022/04/05 02:05:29;;;;;;;8.95;5.50;;;;;;;5.31;77.04;99867.44;5046111;28;20068;-69
2022/04/05 02:07:54;;;;;;;8.48;5.55;;;;;;;5.28;78.00;99861.63;5048092;28;20044;-69
2022/04/05 02:10:19;;;;;;;7.53;5.03;;;;;;;5.28;78.12;99866.88;5054078;28;20368;-69
2022/04/05 02:12:45;;;;;;;8.13;4.85;;;;;;;5.29;78.06;99863.28;5050352;28;20498;-69
2022/04/05 02:15:10;;;;;;;8.98;5.43;;;;;;;5.29;77.82;99861.50;5031725;28;20029;-69
2022/04/05 02:17:36;;;;;;;8.55;5.35;;;;;;;5.29;77.88;99868.53;5053323;28;20498;-69
2022/04/05 02:20:01;;;;;;;6.82;4.90;;;;;;;5.28;77.86;99865.06;5031000;28;20513;-70
2022/04/05 02:22:26;;;;;;;7.70;4.80;;;;;;;5.29;78.08;99869.38;5049267;28;20069;-69
2022/04/05 02:24:52;;;;;;;7.80;4.95;;;;;;;5.30;78.09;99871.03;5049120;28;20043;-69
2022/04/05 02:27:18;;;;;;;7.43;4.60;;;;;;;5.30;78.12;99872.81;5031935;28;20033;-69
2022/04/05 02:29:44;;;;;;;9.00;4.93;;;;;;;5.28;78.68;99867.69;5052806;28;20033;-69
2022/04/05 02:32:09;;;;;;;7.03;5.03;;;;;;;5.31;78.37;99867.44;5047763;28;20056;-69
2022/04/05 02:34:34;;;;;;;9.23;5.55;;;;;;;5.31;79.02;99867.44;5029192;28;20032;-69
2022/04/05 02:37:00;;;;;;;7.75;5.80;;;;;;;5.33;79.05;99869.91;5053503;28;20059;-69
2022/04/05 02:39:25;;;;;;;8.02;5.60;;;;;;;5.32;79.35;99863.84;5047645;28;20045;-69
2022/04/05 02:41:51;;;;;;;6.53;5.10;;;;;;;5.35;79.54;99867.19;5048134;28;20070;-69
2022/04/05 02:44:16;;;;;;;6.55;4.95;;;;;;;5.32;79.67;99857.78;5048768;28;20040;-70
2022/04/05 02:46:41;;;;;;;6.72;4.80;;;;;;;5.32;79.84;99866.47;5053495;28;20028;-69
2022/04/05 02:49:08;;;;;;;8.20;5.28;;;;;;;5.33;79.84;99862.88;5051586;28;20032;-70
2022/04/05 02:51:34;;;;;;;7.97;5.20;;;;;;;5.35;80.11;99862.75;5054415;28;20041;-70
2022/04/05 02:53:59;;;;;;;8.88;5.45;;;;;;;5.37;79.74;99866.06;5044517;28;20040;-69
2022/04/05 02:56:25;;;;;;;8.05;5.47;;;;;;;5.37;80.23;99863.44;5048549;28;20186;-70
2022/04/05 02:58:50;;;;;;;6.63;5.05;;;;;;;5.35;80.48;99861.94;5048254;28;20037;-70
2022/04/05 03:01:16;;;;;;;6.75;5.20;;;;;;;5.33;80.87;99857.63;5025542;28;20043;-70
2022/04/05 03:03:41;;;;;;;9.95;4.90;;;;;;;5.31;81.11;99851.72;5049454;28;20033;-69
2022/04/05 03:06:07;;;;;;;7.82;5.10;;;;;;;5.31;81.27;99853.50;5042339;28;20033;-70
2022/04/05 03:08:32;;;;;;;7.45;5.20;;;;;;;5.28;81.54;99846.72;5032255;28;20063;-69
2022/04/05 03:10:57;;;;;;;9.20;5.65;;;;;;;5.28;81.48;99844.09;5051370;28;20048;-69
2022/04/05 03:13:23;;;;;;;7.32;5.30;;;;;;;5.27;81.61;99846.88;5029294;28;20044;-69
2022/04/05 03:15:48;;;;;;;9.75;5.50;;;;;;;5.26;82.05;99853.06;5044597;28;20581;-70
2022/04/05 03:18:14;;;;;;;8.48;5.80;;;;;;;5.25;81.80;99852.25;5034621;28;20124;-69
2022/04/05 03:20:39;;;;;;;8.25;5.70;;;;;;;5.21;82.68;99850.84;5047670;28;20065;-70
2022/04/05 03:23:05;;;;;;;7.50;5.53;;;;;;;5.22;82.98;99842.03;5045944;28;20033;-70
2022/04/05 03:25:30;;;;;;;9.70;5.70;;;;;;;5.21;83.15;99850.84;5044799;28;20483;-69
2022/04/05 03:27:59;;;;;;;8.63;5.88;;;;;;;5.20;83.43;99841.34;5047859;28;20037;-70
2022/04/05 03:30:25;;;;;;;8.43;5.55;;;;;;;5.20;83.47;99851.00;5047980;28;20037;-70
2022/04/05 03:32:50;;;;;;;9.15;6.13;;;;;;;5.21;83.92;99850.03;5043274;28;20033;-69
2022/04/05 03:35:16;;;;;;;8.70;5.70;;;;;;;5.19;84.43;99847.53;5046868;28;20041;-70
2022/04/05 03:37:42;;;;;;;8.70;5.53;;;;;;;5.20;84.16;99854.44;5041125;28;20110;-69
2022/04/05 03:40:08;;;;;;;7.82;5.55;;;;;;;5.21;84.43;99855.28;5030303;28;20405;-70
2022/04/05 03:42:34;;;;;;;8.27;5.03;;;;;;;5.19;84.58;99844.91;5044041;28;20506;-70
2022/04/05 03:45:00;;;;;;;7.70;5.57;;;;;;;5.20;84.70;99851.81;5046588;28;20114;-70
2022/04/05 03:47:27;;;;;;;8.32;5.15;;;;;;;5.20;85.11;99851.00;5030417;28;20068;-69
2022/04/05 03:49:53;;;;;;;7.72;5.68;;;;;;;5.23;84.93;99843.69;5048878;28;20048;-72
2022/04/05 03:52:19;;;;;;;6.65;4.90;;;;;;;5.23;85.08;99848.09;5035845;28;20037;-69
2022/04/05 03:54:44;;;;;;;7.38;5.20;;;;;;;5.22;85.45;99852.53;5047536;28;20620;-72
2022/04/05 03:57:10;;;;;;;6.07;5.07;;;;;;;5.21;85.82;99850.03;5047496;28;20041;-69
2022/04/05 03:59:35;;;;;;;7.20;5.32;;;;;;;5.21;86.25;99850.84;5040205;28;20055;-70
2022/04/05 04:02:00;;;;;;;8.00;4.93;;;;;;;5.24;85.97;99858.47;5040482;28;20147;-70
2022/04/05 04:04:26;;;;;;;8.18;4.72;;;;;;;5.22;86.27;99844.66;5040954;28;20080;-72
2022/04/05 04:06:51;;;;;;;6.35;5.30;;;;;;;5.23;86.32;99845.47;5046379;28;20036;-70
2022/04/05 04:09:17;;;;;;;7.05;4.85;;;;;;;5.24;86.29;99847.13;5030194;28;20037;-72
2022/04/05 04:11:44;;;;;;;6.75;5.22;;;;;;;5.21;86.73;99842.16;5041708;28;20041;-72
2022/04/05 04:14:10;;;;;;;7.88;5.15;;;;;;;5.22;86.57;99847.28;5029025;28;20037;-70
2022/04/05 04:16:35;;;;;;;8.60;5.75;;;;;;;5.17;86.88;99852.06;5029942;28;20037;-70
2022/04/05 04:19:00;;;;;;;7.75;5.40;;;;;;;5.21;86.44;99850.84;5029423;28;20116;-70
2022/04/05 04:21:26;;;;;;;8.75;5.68;;;;;;;5.22;86.74;99842.03;5047650;28;20029;-69
2022/04/05 04:23:52;;;;;;;8.82;5.43;;;;;;;5.16;87.19;99845.19;5029148;28;20168;-70
2022/04/05 04:26:17;;;;;;;8.80;5.72;;;;;;;5.19;87.09;99841.47;5046162;28;20025;-70
2022/04/05 04:28:42;;;;;;;7.57;5.63;;;;;;;5.17;87.04;99835.53;5029311;28;20144;-72
2022/04/05 04:31:08;;;;;;;7.85;5.40;;;;;;;5.13;87.18;99832.34;5046309;28;20032;-72
2022/04/05 04:33:33;;;;;;;8.88;6.18;;;;;;;5.11;87.27;99835.09;5042158;28;20043;-70
2022/04/05 04:35:59;;;;;;;7.70;6.13;;;;;;;5.06;87.76;99826.81;5042684;28;20059;-72
2022/04/05 04:38:25;;;;;;;11.80;6.53;;;;;;;5.05;87.71;99825.16;5029808;28;20485;-72
2022/04/05 04:40:50;;;;;;;12.48;6.45;;;;;;;5.05;87.63;99830.41;5028833;28;20142;-73
2022/04/05 04:43:17;;;;;;;10.07;6.85;;;;;;;5.04;87.47;99831.34;5047889;28;20041;-71
2022/04/05 04:45:44;;;;;;;9.75;6.78;;;;;;;4.99;88.26;99840.59;5029516;28;20557;-73
2022/04/05 04:48:10;;;;;;;11.68;7.68;;;;;;;4.98;88.19;99834.53;5027196;28;20052;-71
2022/04/05 04:50:35;;;;;;;10.07;6.65;;;;;;;4.95;88.42;99840.00;5045613;28;20036;-71
2022/04/05 04:53:01;;;;;;;11.38;7.57;;;;;;;4.94;88.54;99833.13;5027649;28;20453;-74
2022/04/05 04:55:28;;;;;;;10.55;7.03;;;;;;;4.90;88.54;99821.25;5047753;28;20649;-73
2022/04/05 04:57:53;;;;;;;10.60;7.22;;;;;;;4.84;88.87;99838.34;5047499;28;20036;-73
2022/04/05 05:00:19;;;;;;;11.27;7.72;;;;;;;4.84;88.74;99840.13;5011169;28;20502;-71
2022/04/05 05:02:48;;;;;;;9.60;7.00;;;;;;;4.85;88.95;99839.97;5047401;28;20500;-71
2022/04/05 05:05:20;;;;;;;11.05;7.43;;;;;;;4.83;88.95;99854.16;5043914;28;20029;-71
2022/04/05 05:07:50;;;;;;;11.13;6.95;;;;;;;4.81;89.17;99850.84;5046517;28;20052;-73
2022/04/05 05:10:17;;;;;;;12.25;7.35;;;;;;;4.81;89.19;99841.19;5048638;28;20029;-71
2022/04/05 05:12:43;;;;;;;9.50;7.30;;;;;;;4.80;89.19;99846.59;5042115;28;20037;-72
2022/04/05 05:15:10;;;;;;;11.70;8.10;;;;;;;4.81;89.24;99841.19;5030116;28;20037;-71
2022/04/05 05:17:36;;;;;;;9.75;7.78;;;;;;;4.76;89.85;99845.19;5048068;28;20047;-71
2022/04/05 05:20:05;;;;;;;11.45;8.20;;;;;;;4.76;90.09;99850.41;5051045;28;20033;-71
2022/04/05 05:22:31;;;;;;;11.45;7.70;;;;;;;4.75;90.04;99846.16;5029982;28;20370;-71
2022/04/05 05:24:56;;;;;;;10.15;7.93;;;;;;;4.74;90.03;99840.06;5046483;28;20051;-71
2022/04/05 05:27:21;;;;;;;11.63;7.95;;;;;;;4.72;90.30;99847.25;5051021;28;20170;-71
2022/04/05 05:29:47;;;;;;;11.70;7.97;;;;;;;4.72;90.50;99855.09;5049170;28;20037;-71
2022/04/05 05:32:12;;;;;;;11.82;7.72;;;;;;;4.69;91.00;99855.34;5050012;28;20053;-73
2022/04/05 05:34:37;;;;;;;11.52;7.57;;;;;;;4.70;90.72;99859.63;5049567;28;20106;-71
2022/04/05 05:37:05;;;;;;;11.77;7.88;;;;;;;4.71;90.60;99855.22;5049852;28;20087;-71
2022/04/05 05:39:31;;;;;;;12.00;7.85;;;;;;;4.72;90.80;99851.63;5032961;28;20067;-71
2022/04/05 05:41:56;;;;;;;13.15;8.15;;;;;;;4.74;90.66;99852.31;5050223;28;20120;-71
2022/04/05 05:44:23;;;;;;;11.75;8.52;;;;;;;4.75;90.59;99856.63;5033027;28;20450;-73
2022/04/05 05:46:48;;;;;;;11.60;8.35;;;;;;;4.72;90.79;99851.63;5033132;28;20409;-71
2022/04/05 05:49:14;;;;;;;11.88;8.27;;;;;;;4.71;91.18;99866.53;5052185;28;20076;-71
2022/04/05 05:51:39;;;;;;;12.70;8.25;;;;;;;4.73;91.04;99856.75;5033044;28;20449;-73
2022/04/05 05:54:05;;;;;;;14.88;8.90;;;;;;;4.70;91.34;99871.91;5034906;28;20029;-73
2022/04/05 05:56:30;;;;;;;13.18;8.65;;;;;;;4.72;91.10;99883.91;5051851;28;20064;-73
2022/04/05 05:58:55;;;;;;;10.98;8.27;;;;;;;4.71;91.28;99871.75;5053872;28;20060;-74
2022/04/05 06:01:23;;;;;;;11.93;9.38;;;;;;;4.72;91.06;99868.19;5044121;28;20052;-73
2022/04/05 06:03:48;;;;;;;11.18;7.97;;;;;;;4.73;91.30;99876.88;5050154;28;20083;-73
2022/04/05 06:06:13;;;;;;;13.07;8.75;;;;;;;4.67;91.47;99889.53;5048881;28;20040;-73
2022/04/05 06:08:39;;;;;;;13.95;9.75;;;;;;;4.65;91.70;99885.38;5048085;28;20033;-73
2022/04/05 06:11:07;;;;;;;13.63;9.30;;;;;;;4.68;91.87;99882.50;5047927;28;20262;-73
2022/04/05 06:13:32;;;;;;;11.93;8.18;;;;;;;4.68;91.66;99890.34;5046291;28;20055;-73
2022/04/05 06:15:57;;;;;;;12.82;8.45;;;;;;;4.69;91.52;99897.25;5049727;28;20052;-73
2022/04/05 06:18:23;;;;;;;13.57;8.80;;;;;;;4.69;91.37;99892.00;5051466;28;20025;-72
2022/04/05 06:20:48;;;;;;;13.10;9.70;;;;;;;4.70;91.58;99896.31;5042005;28;20040;-73
2022/04/05 06:23:13;;;;;;;10.68;8.32;;;;;;;4.74;91.12;99902.09;5043091;28;20033;-73
2022/04/05 06:25:39;;;;;;;13.32;8.60;;;;;;;4.73;91.31;99901.25;5046985;28;20051;-73
2022/04/05 06:28:06;;;;;;;12.13;8.20;;;;;;;4.74;91.39;99899.47;5044831;28;20034;-73
2022/04/05 06:30:34;;;;;;;11.93;8.60;;;;;;;4.74;91.05;99900.28;5035339;28;20674;-73
2022/04/05 06:33:05;;;;;;;12.38;8.35;;;;;;;4.77;90.99;99910.53;5030430;28;20033;-73
2022/04/05 06:35:30;;;;;;;11.85;8.93;;;;;;;4.77;91.19;99905.28;5049058;28;20041;-73
2022/04/05 06:37:56;;;;;;;12.73;9.20;;;;;;;4.80;91.05;99909.44;5050225;28;20025;-72
2022/04/05 06:40:21;;;;;;;11.40;8.77;;;;;;;4.78;91.59;99911.34;5049565;28;20095;-72
2022/04/05 06:42:46;;;;;;;11.70;8.10;;;;;;;4.78;91.49;99917.41;5021375;28;20033;-72
2022/04/05 06:45:15;;;;;;;11.70;8.05;;;;;;;4.80;91.56;99925.16;5048367;28;20037;-72
2022/04/05 06:47:41;;;;;;;11.10;8.63;;;;;;;4.80;91.70;99920.75;5037046;28;20036;-72
2022/04/05 06:50:08;;;;;;;12.35;8.40;;;;;;;4.84;91.42;99927.38;5045808;28;20022;-73
2022/04/05 06:52:37;;;;;;;11.52;8.20;;;;;;;4.81;91.69;99921.56;5046966;28;20239;-73
2022/04/05 06:55:03;;;;;;;12.15;8.13;;;;;;;4.85;91.54;99917.75;5048813;28;20036;-73
2022/04/05 06:57:29;;;;;;;12.38;8.57;;;;;;;4.85;91.54;99921.19;5049151;28;20047;-73
2022/04/05 06:59:54;;;;;;;12.48;8.02;;;;;;;4.84;91.98;99927.38;5029872;28;20431;-73
2022/04/05 07:02:19;;;;;;;12.75;8.18;;;;;;;4.84;92.32;99932.63;5048697;28;20097;-72
2022/04/05 07:04:45;;;;;;;12.63;8.70;;;;;;;4.80;92.65;99925.97;5051497;28;20029;-73
2022/04/05 07:07:10;;;;;;;11.52;8.57;;;;;;;4.82;92.69;99934.53;5029915;28;20313;-72
2022/04/05 07:09:35;;;;;;;12.40;9.40;;;;;;;4.82;92.74;99942.41;5052207;28;20056;-72
2022/04/05 07:12:02;;;;;;;11.02;8.20;;;;;;;4.78;93.11;99933.13;5052966;28;20110;-73
2022/04/05 07:14:27;;;;;;;12.65;8.80;;;;;;;4.79;93.06;99937.44;5046758;28;20067;-73
2022/04/05 07:16:52;;;;;;;11.68;8.95;;;;;;;4.80;93.26;99931.22;5048907;28;20470;-72
2022/04/05 07:19:18;;;;;;;13.35;9.30;;;;;;;4.77;93.52;99939.34;5052925;28;20410;-72
2022/04/05 07:21:43;;;;;;;13.65;9.05;;;;;;;4.77;93.46;99939.34;5042307;28;20052;-73
2022/04/05 07:24:08;;;;;;;12.40;9.02;;;;;;;4.77;94.31;99949.81;5039402;28;20064;-72
2022/04/05 07:26:33;;;;;;;13.52;8.90;;;;;;;4.78;93.69;99935.75;5049195;28;20053;-72
2022/04/05 07:28:59;;;;;;;12.40;9.68;;;;;;;4.79;93.90;99931.34;5042929;28;20033;-72
2022/04/05 07:31:24;;;;;;;11.63;8.52;;;;;;;4.81;93.99;99938.09;5048827;28;20048;-73
2022/04/05 07:33:49;;;;;;;12.85;9.27;;;;;;;4.80;94.35;99931.22;5044122;28;20033;-72
2022/04/05 07:36:15;;;;;;;11.50;8.82;;;;;;;4.83;94.31;99928.34;5028938;28;20040;-72
2022/04/05 07:38:40;;;;;;;13.10;9.65;;;;;;;4.84;94.19;99927.38;5044948;28;20058;-72
2022/04/05 07:41:05;;;;;;;13.82;9.55;;;;;;;4.81;94.82;99922.38;5028678;28;20397;-72
2022/04/05 07:43:31;;;;;;;17.13;10.13;;;;;;;4.84;94.50;99935.25;5044839;28;20128;-73
2022/04/05 07:45:57;;;;;;;13.38;10.40;;;;;;;4.83;94.78;99927.50;5043302;28;20048;-73
2022/04/05 07:48:28;;;;;;;15.30;10.50;;;;;;;4.86;94.76;99930.72;5043048;28;20079;-72
2022/04/05 07:50:54;;;;;;;13.23;9.68;;;;;;;4.84;94.94;99930.00;5041932;28;20029;-73
2022/04/05 07:53:20;;;;;;;14.88;9.35;;;;;;;4.89;95.16;99937.47;5026105;28;20033;-73
2022/04/05 07:55:45;;;;;;;13.68;9.65;;;;;;;4.89;95.04;99930.44;5030069;28;20083;-73
2022/04/05 07:58:11;;;;;;;14.50;9.57;;;;;;;4.92;95.30;99924.13;5048448;28;20037;-73
2022/04/05 08:00:37;;;;;;;13.10;9.93;;;;;;;4.94;95.60;99931.84;5048285;28;20041;-74
2022/04/05 08:03:03;;;;;;;14.88;9.73;;;;;;;4.97;95.32;99931.59;5046014;28;20350;-74
2022/04/05 08:05:29;;;;;;;15.02;9.55;;;;;;;4.96;95.25;99936.00;5047541;28;20041;-74
2022/04/05 08:07:55;;;;;;;12.25;8.65;;;;;;;4.97;95.46;99931.59;5048464;28;20551;-72
2022/04/05 08:10:21;;;;;;;11.93;8.15;;;;;;;5.00;95.12;99926.91;5044171;28;20383;-73
2022/04/05 08:12:48;;;;;;;11.77;8.68;;;;;;;5.02;95.39;99934.66;5042517;28;20056;-74
2022/04/05 08:15:22;;;;;;;13.68;8.90;;;;;;;5.07;95.23;99932.44;5042937;28;20040;-73
2022/04/05 08:17:48;;;;;;;13.43;8.57;;;;;;;5.06;95.39;99941.28;5046468;28;20033;-74
2022/04/05 08:20:14;;;;;;;12.70;9.00;;;;;;;5.08;95.26;99939.38;5045143;28;20033;-73
2022/04/05 08:22:41;;;;;;;12.82;8.32;;;;;;;5.08;95.55;99937.56;5047752;28;20328;-72
2022/04/05 08:25:07;;;;;;;15.18;8.70;;;;;;;5.12;95.23;99948.59;5041516;28;20048;-72
2022/04/05 08:27:34;;;;;;;13.75;8.48;;;;;;;5.12;95.17;99946.00;5047993;28;20094;-72
2022/04/05 08:30:00;;;;;;;11.80;8.13;;;;;;;5.12;95.44;99946.00;5044772;28;20048;-74
2022/04/05 08:32:26;;;;;;;12.40;9.55;;;;;;;5.13;95.68;99938.97;5043803;28;20098;-73
2022/04/05 08:34:52;;;;;;;12.45;9.00;;;;;;;5.19;95.45;99939.25;5044199;28;20490;-73
2022/04/05 08:37:17;;;;;;;12.13;9.00;;;;;;;5.19;95.20;99936.63;5044961;28;20608;-72
2022/04/05 08:39:43;;;;;;;13.55;8.57;;;;;;;5.25;95.29;99941.38;5045383;28;20425;-72
2022/04/05 08:42:09;;;;;;;11.73;8.38;;;;;;;5.29;95.05;99940.16;5044675;28;20041;-73
2022/04/05 08:44:35;;;;;;;13.48;9.07;;;;;;;5.30;94.92;99939.19;5043206;28;20045;-73
2022/04/05 08:47:02;;;;;;;14.02;8.48;;;;;;;5.32;94.84;99942.50;5050349;28;20101;-74
2022/04/05 08:49:28;;;;;;;12.90;8.82;;;;;;;5.35;94.88;99938.78;5050244;28;20037;-73
2022/04/05 08:51:53;;;;;;;13.75;9.10;;;;;;;5.39;94.64;99937.56;5041595;28;20128;-72
2022/04/05 08:54:19;;;;;;;11.95;8.77;;;;;;;5.40;94.82;99944.44;5044907;28;20125;-73
2022/04/05 08:56:44;;;;;;;11.90;8.23;;;;;;;5.44;95.07;99945.03;5050421;28;21425;-74
2022/04/05 08:59:10;;;;;;;13.70;8.70;;;;;;;5.46;94.85;99945.72;5049294;28;20057;-73
2022/04/05 09:01:35;;;;;;;11.52;8.25;;;;;;;5.48;94.89;99944.63;5046449;28;20037;-73
2022/04/05 09:04:00;;;;;;;11.15;7.85;;;;;;;5.50;95.05;99949.72;5049731;28;20029;-73
2022/04/05 09:06:27;;;;;;;13.20;8.90;;;;;;;5.57;94.54;99950.84;5048449;28;20072;-73
2022/04/05 09:09:13;;;;;;;13.18;8.50;;;;;;;5.60;94.73;99945.38;5047668;28;20037;-73
2022/04/05 09:11:53;;;;;;;11.75;7.78;;;;;;;5.67;94.97;99946.47;5043284;28;20413;-73
2022/04/05 09:14:26;;;;;;;15.27;8.95;;;;;;;5.71;94.75;99947.03;5047663;28;20048;-72
2022/04/05 09:17:06;;;;;;;11.52;8.15;;;;;;;5.65;94.93;99951.03;5030793;28;20064;-73
2022/04/05 09:19:45;;;;;;;11.63;8.23;;;;;;;5.67;94.52;99949.09;5045853;28;20033;-73
2022/04/05 09:22:11;;;;;;;13.20;8.60;;;;;;;5.70;94.44;99954.06;5047869;28;21805;-74
2022/04/05 09:24:39;;;;;;;12.32;8.90;;;;;;;5.73;94.17;99951.16;5047608;28;20076;-73
2022/04/05 09:27:05;;;;;;;14.68;9.70;;;;;;;5.71;94.36;99947.84;5043370;28;20040;-73
2022/04/05 09:30:02;;;;;;;12.48;9.05;;;;;;;5.74;94.59;99947.59;5047985;28;20106;-73
2022/04/05 09:32:31;;;;;;;12.95;8.85;;;;;;;5.78;94.55;99947.31;5031542;28;20059;-73
2022/04/05 09:34:57;;;;;;;12.07;8.70;;;;;;;5.79;94.44;99946.34;5029704;28;20139;-73
2022/04/05 09:37:28;;;;;;;14.73;8.75;;;;;;;5.78;94.61;99942.91;5026442;28;20116;-73
2022/04/05 09:39:55;;;;;;;12.95;8.93;;;;;;;5.82;94.75;99944.31;5048206;28;20049;-73
2022/04/05 09:42:20;;;;;;;12.40;8.48;;;;;;;5.86;94.66;99948.28;5042227;28;20166;-74
2022/04/05 09:44:45;;;;;;;13.35;9.30;;;;;;;5.89;94.45;99945.41;5029888;28;20116;-73
2022/04/05 09:47:19;;;;;;;12.93;8.63;;;;;;;5.94;94.47;99937.16;5042606;28;20100;-73
2022/04/05 09:49:46;;;;;;;13.73;7.85;;;;;;;6.00;94.26;99951.53;5033224;28;20056;-73
2022/04/05 09:52:41;;;;;;;12.23;8.38;;;;;;;6.01;94.32;99951.41;5050638;28;20037;-71
2022/04/05 09:55:10;;;;;;;10.55;7.85;;;;;;;6.14;94.03;99945.88;5032540;28;20056;-71
2022/04/05 09:57:37;;;;;;;12.05;8.18;;;;;;;6.19;93.95;99954.16;5047457;28;20037;-72
2022/04/05 10:00:14;;;;;;;11.13;7.65;;;;;;;6.24;93.79;99951.13;5046846;28;20528;-72
2022/04/05 10:03:02;;;;;;;12.13;8.35;;;;;;;6.29;93.79;99952.38;5037499;28;20066;-72
2022/04/05 10:05:32;;;;;;;10.73;7.13;;;;;;;6.40;93.40;99956.66;5045768;28;20120;-72
2022/04/05 10:07:57;;;;;;;11.43;7.90;;;;;;;6.49;93.44;99952.38;5046437;28;20033;-71
2022/04/05 10:10:26;;;;;;;12.02;8.80;;;;;;;6.58;93.37;99955.00;5041976;28;20030;-72
2022/04/05 10:12:53;;;;;;;11.05;8.10;;;;;;;6.70;92.67;99954.84;5042674;28;20039;-72
2022/04/05 10:15:21;;;;;;;10.82;7.88;;;;;;;6.70;92.74;99960.09;5039442;28;20387;-72
2022/04/05 10:17:48;;;;;;;11.45;8.63;;;;;;;6.74;92.69;99962.28;5042567;28;20045;-72
2022/04/05 10:20:16;;;;;;;13.43;8.07;;;;;;;6.76;92.24;99959.53;5029643;28;20040;-72
2022/04/05 10:22:42;;;;;;;13.30;8.65;;;;;;;6.75;92.52;99961.31;5048331;28;20362;-72
2022/04/05 10:25:08;;;;;;;10.10;7.70;;;;;;;6.88;92.55;99952.31;5050211;28;20120;-72
2022/04/05 10:27:35;;;;;;;12.13;8.63;;;;;;;6.98;91.63;99950.47;5049151;28;20029;-72
2022/04/05 10:30:26;;;;;;;10.77;8.00;;;;;;;7.02;91.55;99957.94;5046849;28;20041;-72
2022/04/05 10:33:12;;;;;;;9.93;7.07;;;;;;;7.10;91.31;99956.38;5034701;28;20051;-72
2022/04/05 10:35:50;;;;;;;9.68;7.38;;;;;;;7.07;90.79;99954.06;5040244;28;20062;-72
2022/04/05 10:38:19;;;;;;;10.05;6.80;;;;;;;7.14;90.73;99949.88;5057998;28;20091;-72
2022/04/05 10:41:11;;;;;;;11.35;7.90;;;;;;;7.11;90.57;99956.25;5050709;28;20039;-72
2022/04/05 10:43:38;;;;;;;;;;;;;;;7.11;90.44;99950.19;5029900;28;20098;-72
2022/04/05 10:46:04;;;;;;;12.25;7.72;;;;;;;7.14;90.08;99955.13;5048754;28;20399;-72
2022/04/05 10:48:31;;;;;;;10.65;7.78;;;;;;;7.13;89.85;99951.69;5043423;28;20043;-72
2022/04/05 10:50:59;;;;;;;8.95;6.57;;;;;;;7.19;90.08;99950.28;5048379;28;20033;-72
2022/04/05 10:56:30;;;;;;;8.85;6.90;;;;;;;7.22;89.88;99949.97;5049081;28;20052;-72
2022/04/05 10:58:55;;;;;;;8.05;6.40;;;;;;;7.26;89.71;99950.53;5050484;28;20486;-73
2022/04/05 11:01:23;;;;;;;8.98;6.57;;;;;;;7.28;89.81;99954.66;5046405;28;20116;-72
2022/04/05 11:04:16;;;;;;;9.93;6.72;;;;;;;7.35;89.65;99953.13;5046562;28;20048;-73
2022/04/05 11:06:59;;;;;;;8.27;6.03;;;;;;;7.39;89.64;99951.03;5044561;28;20056;-73
2022/04/05 11:09:47;;;;;;;11.30;6.63;;;;;;;7.44;89.38;99951.44;5025570;28;20404;-72
2022/04/05 11:12:19;;;;;;;10.93;6.97;;;;;;;7.53;89.03;99949.72;5044397;28;20111;-72
2022/04/05 11:14:49;;;;;;;12.65;6.45;;;;;;;7.52;88.86;99946.25;5048175;28;20037;-72
2022/04/05 11:17:16;;;;;;;10.27;6.00;;;;;;;7.50;88.85;99944.75;5041348;28;20068;-73
2022/04/05 11:19:44;;;;;;;10.45;6.10;;;;;;;7.47;88.97;99947.69;5050558;28;20120;-73
2022/04/05 11:22:21;;;;;;;8.50;6.05;;;;;;;7.38;89.48;99952.81;5047878;28;20040;-72
2022/04/05 11:24:54;;;;;;;7.80;5.43;;;;;;;7.39;89.46;99956.31;5041823;28;20040;-72
2022/04/05 11:27:44;;;;;;;8.60;6.20;;;;;;;7.25;89.78;99947.09;5030278;28;20520;-72
2022/04/05 11:30:28;;;;;;;9.40;6.32;;;;;;;7.20;90.23;99951.94;5042411;28;20469;-72
2022/04/05 11:33:17;;;;;;;8.32;6.00;;;;;;;7.21;90.68;99950.97;5048479;28;20036;-72
2022/04/05 11:35:57;;;;;;;9.63;6.20;;;;;;;7.22;90.55;99950.84;5046435;28;20127;-72
2022/04/05 11:38:23;;;;;;;7.95;6.43;;;;;;;7.20;90.98;99951.94;5039464;28;20410;-72
2022/04/05 11:41:03;;;;;;;9.40;6.72;;;;;;;7.21;90.68;99943.91;5047539;28;20128;-72